createdAt,value
2022-07-25T00:00:25.576Z,5.03
2022-07-25T00:05:37.363Z,5.22
2022-07-25T00:10:39.859Z,5.20
2022-07-25T00:15:41.696Z,5.45
2022-07-25T00:20:43.336Z,5.25
2022-07-25T00:25:45.674Z,5.30
2022-07-25T00:30:47.986Z,5.32
2022-07-25T00:35:50.607Z,5.10
2022-07-25T00:40:55.321Z,5.30
2022-07-25T00:46:06.461Z,5.35
2022-07-25T00:51:12.501Z,5.15
2022-07-25T00:56:15.693Z,5.40
2022-07-25T01:01:18.175Z,5.38
2022-07-25T01:06:20.997Z,5.30
2022-07-25T01:11:27.987Z,5.40
2022-07-25T01:16:30.699Z,5.13
2022-07-25T01:21:33.010Z,5.43
2022-07-25T01:26:35.264Z,5.07
2022-07-25T01:31:37.914Z,5.88
2022-07-25T01:36:42.518Z,5.88
2022-07-25T01:41:44.349Z,5.63
2022-07-25T01:46:46.774Z,5.90
2022-07-25T01:51:48.651Z,5.88
2022-07-25T01:56:51.290Z,5.80
2022-07-25T02:01:54.077Z,5.47
2022-07-25T02:06:57.130Z,5.90
2022-07-25T02:12:00.149Z,5.70
2022-07-25T02:17:02.267Z,5.68
2022-07-25T02:22:04.857Z,6.03
2022-07-25T02:27:10.292Z,5.60
2022-07-25T02:32:12.336Z,6.00
2022-07-25T02:37:17.932Z,5.63
2022-07-25T02:42:20.441Z,5.95
2022-07-25T02:47:22.440Z,5.80
2022-07-25T02:52:24.931Z,5.97
2022-07-25T02:57:26.771Z,6.07
2022-07-25T03:02:28.559Z,5.90
2022-07-25T03:07:30.270Z,6.18
2022-07-25T03:12:36.322Z,5.68
2022-07-25T03:17:39.318Z,5.85
2022-07-25T03:22:49.409Z,5.93
2022-07-25T03:27:52.222Z,6.05
2022-07-25T03:32:55.292Z,6.00
2022-07-25T03:37:57.669Z,5.72
2022-07-25T03:42:59.528Z,6.22
2022-07-25T03:48:01.391Z,6.15
2022-07-25T03:53:04.489Z,6.47
2022-07-25T03:58:07.180Z,6.40
2022-07-25T04:03:08.944Z,6.55
2022-07-25T04:08:11.754Z,6.28
2022-07-25T04:13:20.083Z,6.32
2022-07-25T04:18:27.436Z,6.18
2022-07-25T04:23:31.506Z,6.30
2022-07-25T04:28:33.853Z,5.75
2022-07-25T04:33:43.081Z,6.03
2022-07-25T04:38:47.450Z,6.20
2022-07-25T04:43:51.389Z,6.63
2022-07-25T04:48:54.010Z,5.85
2022-07-25T04:53:55.681Z,5.78
2022-07-25T04:59:00.599Z,6.28
2022-07-25T05:04:14.767Z,5.75
2022-07-25T05:09:19.807Z,5.57
2022-07-25T05:14:21.804Z,5.95
2022-07-25T05:19:23.474Z,5.80
2022-07-25T05:24:25.156Z,5.30
2022-07-25T05:29:28.398Z,5.43
2022-07-25T05:34:30.789Z,5.82
2022-07-25T05:39:33.035Z,5.45
2022-07-25T05:44:41.825Z,5.18
2022-07-25T05:49:43.814Z,5.57
2022-07-25T05:54:45.811Z,5.68
2022-07-25T05:59:47.898Z,5.35
2022-07-25T06:04:52.894Z,5.53
2022-07-25T06:09:54.820Z,5.22
2022-07-25T06:14:56.521Z,5.35
2022-07-25T06:19:58.704Z,5.30
2022-07-25T06:25:05.002Z,5.35
2022-07-25T06:30:18.649Z,5.50
2022-07-25T06:35:25.166Z,4.57
2022-07-25T06:40:27.105Z,4.65
2022-07-25T06:45:28.892Z,4.88
2022-07-25T06:50:31.340Z,4.90
2022-07-25T06:55:33.103Z,4.70
2022-07-25T07:00:34.972Z,4.93
2022-07-25T07:05:37.361Z,4.82
2022-07-25T07:10:40.273Z,5.35
2022-07-25T07:15:47.710Z,4.90
2022-07-25T07:20:49.384Z,5.03
2022-07-25T07:25:51.024Z,4.57
2022-07-25T07:31:15.146Z,4.65
2022-07-25T07:36:14.259Z,4.38
2022-07-25T07:41:15.917Z,4.30
2022-07-25T07:46:17.601Z,4.68
2022-07-25T07:51:19.272Z,4.30
2022-07-25T07:56:21.176Z,4.13
2022-07-25T08:01:22.838Z,4.20
2022-07-25T08:06:24.574Z,4.72
2022-07-25T08:11:26.560Z,4.40
2022-07-25T08:16:28.253Z,4.63
2022-07-25T08:21:30.042Z,5.13
2022-07-25T08:26:33.839Z,4.63
2022-07-25T08:31:35.467Z,4.78
2022-07-25T08:36:37.117Z,4.95
2022-07-25T08:41:41.189Z,4.93
2022-07-25T08:46:45.190Z,5.22
2022-07-25T08:51:47.663Z,4.85
2022-07-25T08:56:53.472Z,5.05
2022-07-25T09:01:55.151Z,4.82
2022-07-25T09:06:56.837Z,5.00
2022-07-25T09:11:58.687Z,4.82
2022-07-25T09:17:22.558Z,5.07
2022-07-25T09:22:25.624Z,4.97
2022-07-25T09:27:36.495Z,4.28
2022-07-25T09:32:39.469Z,4.78
2022-07-25T09:37:44.137Z,4.70
2022-07-25T09:42:50.675Z,4.32
2022-07-25T09:47:56.901Z,4.88
2022-07-25T09:53:02.525Z,4.53
2022-07-25T09:58:04.316Z,4.03
2022-07-25T10:03:16.921Z,4.50
2022-07-25T10:08:20.923Z,8.80
2022-07-25T10:13:31.506Z,5.53
2022-07-25T10:18:34.457Z,4.97
2022-07-25T10:23:36.201Z,4.55
2022-07-25T10:29:05.272Z,4.43
2022-07-25T10:34:11.069Z,4.70
2022-07-25T10:39:15.634Z,4.43
2022-07-25T10:44:17.366Z,4.82
2022-07-25T10:49:32.070Z,4.72
2022-07-25T10:54:38.912Z,4.90
2022-07-25T10:59:41.409Z,4.88
2022-07-25T11:04:44.853Z,4.70
2022-07-25T11:09:57.160Z,4.57
2022-07-25T11:15:07.273Z,4.80
2022-07-25T11:20:10.583Z,5.57
2022-07-25T11:25:14.525Z,5.35
2022-07-25T11:30:28.982Z,4.72
2022-07-25T11:35:32.822Z,4.85
2022-07-25T11:40:42.865Z,4.10
2022-07-25T11:45:44.493Z,5.00
2022-07-25T11:50:46.401Z,4.70
2022-07-25T11:55:48.198Z,4.30
2022-07-25T12:00:50.727Z,4.45
2022-07-25T12:05:58.496Z,4.70
2022-07-25T12:11:01.477Z,4.30
2022-07-25T12:16:04.183Z,4.93
2022-07-25T12:21:07.587Z,4.78
2022-07-25T12:26:13.776Z,4.53
2022-07-25T12:31:18.509Z,5.03
2022-07-25T12:36:23.140Z,4.45
2022-07-25T12:41:25.378Z,4.25
2022-07-25T12:46:30.014Z,4.63
2022-07-25T12:51:31.656Z,5.05
2022-07-25T12:56:33.414Z,4.63
2022-07-25T13:01:36.519Z,4.80
2022-07-25T13:06:46.733Z,4.70
2022-07-25T13:11:48.971Z,3.80
2022-07-25T13:16:50.780Z,5.15
2022-07-25T13:21:53.431Z,4.57
2022-07-25T13:26:55.209Z,4.95
2022-07-25T13:31:56.956Z,4.82
2022-07-25T13:36:58.699Z,4.50
2022-07-25T13:42:00.370Z,4.65
2022-07-25T13:47:02.185Z,4.55
2022-07-25T13:52:04.418Z,4.45
2022-07-25T13:57:06.082Z,4.53
2022-07-25T14:02:07.797Z,3.90
2022-07-25T14:07:09.584Z,4.30
2022-07-25T14:12:11.216Z,3.88
2022-07-25T14:17:12.907Z,4.28
2022-07-25T14:22:14.609Z,4.55
2022-07-25T14:27:16.234Z,3.97
2022-07-25T14:32:17.947Z,4.40
2022-07-25T14:37:20.953Z,3.45
2022-07-25T14:42:22.637Z,4.00
2022-07-25T14:47:27.222Z,3.63
2022-07-25T14:52:29.280Z,3.50
2022-07-25T14:57:30.902Z,3.60
2022-07-25T15:02:32.580Z,3.00
2022-07-25T15:07:34.445Z,3.20
2022-07-25T15:12:38.900Z,3.35
2022-07-25T15:17:40.660Z,2.40
2022-07-25T15:22:42.406Z,2.10
2022-07-25T15:27:44.295Z,1.85
2022-07-25T15:32:46.046Z,2.30
2022-07-25T15:37:47.910Z,2.20
2022-07-25T15:42:49.691Z,1.90
2022-07-25T15:47:51.865Z,2.10
2022-07-25T15:52:53.513Z,2.25
2022-07-25T15:57:55.160Z,1.80
2022-07-25T16:02:57.152Z,1.92
2022-07-25T16:08:02.229Z,3.33
2022-07-25T16:13:04.587Z,2.40
2022-07-25T16:18:06.616Z,2.20
2022-07-25T16:23:08.908Z,2.42
2022-07-25T16:28:11.416Z,2.17
2022-07-25T16:33:14.233Z,2.20
2022-07-25T16:38:17.117Z,2.17
2022-07-25T16:43:18.705Z,2.20
2022-07-25T16:48:20.633Z,2.25
2022-07-25T16:53:32.773Z,1.95
2022-07-25T16:58:35.067Z,2.25
2022-07-25T17:03:36.725Z,2.15
2022-07-25T17:08:38.589Z,1.98
2022-07-25T17:13:41.556Z,2.08
2022-07-25T17:18:43.148Z,2.30
2022-07-25T17:23:45.002Z,2.22
2022-07-25T17:28:47.951Z,4.03
2022-07-25T17:33:50.877Z,4.30
2022-07-25T17:38:53.002Z,4.32
2022-07-25T17:43:54.750Z,3.95
2022-07-25T17:49:00.578Z,3.88
2022-07-25T17:54:09.085Z,4.45
2022-07-25T17:59:11.228Z,5.18
2022-07-25T18:04:14.396Z,4.88
2022-07-25T18:09:16.099Z,4.95
2022-07-25T18:14:17.747Z,4.97
2022-07-25T18:19:19.549Z,4.72
2022-07-25T18:24:24.757Z,5.45
2022-07-25T18:29:29.265Z,4.68
2022-07-25T18:34:33.998Z,5.03
2022-07-25T18:39:35.650Z,5.13
2022-07-25T18:44:37.509Z,5.38
2022-07-25T18:49:39.612Z,4.97
2022-07-25T18:54:41.303Z,5.13
2022-07-25T18:59:43.315Z,4.50
2022-07-25T19:04:45.147Z,5.15
2022-07-25T19:09:46.895Z,4.72
2022-07-25T19:14:49.303Z,5.18
2022-07-25T19:19:52.701Z,5.50
2022-07-25T19:24:54.366Z,5.72
2022-07-25T19:29:55.990Z,5.97
2022-07-25T19:34:57.657Z,5.32
2022-07-25T19:40:00.956Z,5.35
2022-07-25T19:45:03.452Z,5.65
2022-07-25T19:50:05.539Z,5.90
2022-07-25T19:55:07.597Z,5.88
2022-07-25T20:00:10.217Z,5.75
2022-07-25T20:05:14.600Z,5.50
2022-07-25T20:10:17.873Z,5.75
2022-07-25T20:15:19.826Z,5.57
2022-07-25T20:20:21.486Z,6.00
2022-07-25T20:25:23.301Z,6.00
2022-07-25T20:30:25.146Z,6.00
2022-07-25T20:35:30.991Z,6.03
2022-07-25T20:40:36.194Z,5.47
2022-07-25T20:45:39.584Z,5.57
2022-07-25T20:50:42.095Z,4.97
2022-07-25T20:55:43.934Z,4.95
2022-07-25T21:00:46.542Z,4.82
2022-07-25T21:05:48.361Z,5.00
2022-07-25T21:10:50.106Z,4.78
2022-07-25T21:15:51.890Z,4.82
2022-07-25T21:20:53.887Z,4.53
2022-07-25T21:25:55.664Z,5.10
2022-07-25T21:30:57.327Z,4.43
2022-07-25T21:35:59.239Z,4.75
2022-07-25T21:41:00.993Z,5.20
2022-07-25T21:46:02.731Z,4.80
2022-07-25T21:51:07.710Z,4.88
2022-07-25T21:56:09.563Z,5.53
2022-07-25T22:01:11.189Z,5.28
2022-07-25T22:06:12.960Z,5.20
2022-07-25T22:11:35.796Z,5.18
2022-07-25T22:16:36.720Z,5.20
2022-07-25T22:21:40.597Z,5.20
2022-07-25T22:26:42.542Z,5.10
2022-07-25T22:31:44.574Z,5.35
2022-07-25T22:36:46.498Z,5.00
2022-07-25T22:41:48.588Z,5.28
2022-07-25T22:46:50.391Z,4.97
2022-07-25T22:51:52.367Z,4.88
2022-07-25T22:56:54.101Z,5.05
2022-07-25T23:01:55.996Z,4.82
2022-07-25T23:06:57.678Z,4.95
2022-07-25T23:11:59.270Z,5.07
2022-07-25T23:17:20.066Z,4.20
2022-07-25T23:22:25.523Z,4.28
2022-07-25T23:27:27.370Z,4.38
2022-07-25T23:32:28.988Z,3.88
2022-07-25T23:37:30.845Z,4.40
2022-07-25T23:42:32.854Z,4.38
2022-07-25T23:47:39.298Z,3.30
2022-07-25T23:52:42.493Z,3.47
2022-07-25T23:57:44.239Z,3.70
